ADDS METAR Data INFO
IDs: Format: Raw Decoded Include TAF

Data at: 0839 UTC 21 Oct 2017

KLRU 210815Z AUTO 00000KT 10SM CLR 16/04 A2992 RMK AO2 T01590042
KLRU 210755Z AUTO 25007KT 10SM CLR 17/04 A2992 RMK AO2 T01650040
KLRU 210735Z AUTO 25006KT 10SM CLR 17/04 A2992 RMK AO2 T01670039
KLRU 210715Z AUTO 24006KT 10SM CLR 17/04 A2992 RMK AO2 T01720035
KLRU 210655Z AUTO 23007KT 10SM CLR 18/04 A2991 RMK AO2 T01770035
KLRU 210635Z AUTO 22010KT 10SM CLR 18/04 A2990 RMK AO2 T01760036
KLRU 210615Z AUTO 21008KT 10SM CLR 18/04 A2991 RMK AO2 T01790036
KLRU 210555Z AUTO 23009KT 10SM CLR 18/03 A2991 RMK AO2 T01830033 10255 20183
KLRU 210535Z AUTO 23011KT 10SM CLR 20/03 A2990 RMK AO2 T01950026
KLRU 210515Z AUTO 24013KT 10SM CLR 20/02 A2990 RMK AO2 T02000022
KLRU 210455Z AUTO 23012KT 10SM CLR 21/02 A2990 RMK AO2 T02060020
KLRU 210435Z AUTO 23011G15KT 10SM CLR 20/02 A2990 RMK AO2 T02030024
KLRU 210415Z AUTO 22008KT 10SM CLR 20/03 A2990 RMK AO2 T02020028
KLRU 210355Z AUTO 21008KT 10SM CLR 21/03 A2990 RMK AO2 T02100026
KLRU 210335Z AUTO 23011KT 10SM CLR 21/03 A2989 RMK AO2 T02060034
KLRU 210315Z AUTO 23008KT 10SM CLR 20/04 A2990 RMK AO2 T02020038
KLRU 210255Z AUTO 23008KT 10SM CLR 21/04 A2990 RMK AO2 T02050040
KLRU 210235Z AUTO 23009KT 10SM CLR 21/04 A2990 RMK AO2 T02130036
KLRU 210215Z AUTO 23011KT 10SM CLR 22/04 A2989 RMK AO2 T02150038
KLRU 210155Z AUTO 23009KT 10SM CLR 22/04 A2989 RMK AO2 T02180044
KLRU 210135Z AUTO 22007KT 10SM SCT110 22/05 A2988 RMK AO2 T02160045
KLRU 210115Z AUTO 24006KT 10SM SCT110 22/05 A2988 RMK AO2 T02150049
KLRU 210055Z AUTO 25007KT 10SM CLR 22/05 A2988 RMK AO2 T02150049
KLRU 210035Z AUTO 25006KT 10SM CLR 23/05 A2988 RMK AO2 T02290045
KLRU 210015Z AUTO 24006KT 10SM CLR 25/05 A2988 RMK AO2 T02450053
KLRU 202355Z AUTO 22007KT 10SM CLR 26/05 A2988 RMK AO2 T02550049 10265 20210
KLRU 202335Z AUTO 23006KT 10SM CLR 26/05 A2990 RMK AO2 T02600045
KLRU 202315Z AUTO 23008KT 10SM CLR 26/05 A2990 RMK AO2 T02620045
KLRU 202255Z AUTO 23006KT 10SM CLR 26/05 A2990 RMK AO2 T02630050
KLRU 202235Z AUTO 24011G15KT 10SM CLR 26/05 A2990 RMK AO2 T02630051
KLRU 202215Z AUTO 26008KT 10SM CLR 27/05 A2991 RMK AO2 T02650054
KLRU 202155Z AUTO 22012KT 10SM CLR 27/05 A2991 RMK AO2 T02650051
KLRU 202135Z AUTO 25012G15KT 10SM CLR 26/05 A2992 RMK AO2 T02620050
KLRU 202115Z AUTO 24009G20KT 10SM CLR 26/05 A2992 RMK AO2 T02590052
KLRU 202055Z AUTO 25012G17KT 10SM CLR 26/06 A2993 RMK AO2 T02570056
KLRU 202035Z AUTO 22014G17KT 10SM CLR 26/06 A2994 RMK AO2 T02560059
KLRU 202015Z AUTO 24016G21KT 10SM CLR 25/06 A2995 RMK AO2 T02520059
KLRU 201955Z AUTO 23017G20KT 10SM CLR 25/06 A2996 RMK AO2 T02500059
KLRU 201935Z AUTO 25012G17KT 10SM CLR 25/07 A2998 RMK AO2 T02470072
KLRU 201915Z AUTO 23007KT 10SM CLR 24/09 A2999 RMK AO2 T02400092
KLRU 201855Z AUTO 16004KT 10SM CLR 23/10 A3000 RMK AO2 T02340097
KLRU 201835Z AUTO 17006KT 10SM CLR 23/10 A3002 RMK AO2 T02250100
KLRU 201815Z AUTO 17006KT 10SM CLR 22/11 A3003 RMK AO2 T02210108
KLRU 201755Z AUTO 14006KT 10SM CLR 21/11 A3003 RMK AO2 T02080113 10208 20101
KLRU 201735Z AUTO 16007KT 10SM CLR 20/12 A3004 RMK AO2 T02000116
KLRU 201715Z AUTO 18007KT 10SM CLR 20/12 A3005 RMK AO2 T01950116
KLRU 201655Z AUTO 18005KT 10SM CLR 18/12 A3006 RMK AO2 T01840116
KLRU 201635Z AUTO 15003KT 10SM CLR 18/11 A3006 RMK AO2 T01790112
KLRU 201615Z AUTO 11005KT 10SM CLR 18/11 A3007 RMK AO2 T01750114
KLRU 201555Z AUTO 10006KT 10SM CLR 17/11 A3007 RMK AO2 T01720113
KLRU 201535Z AUTO 12005KT 10SM CLR 17/11 A3007 RMK AO2 T01670106
KLRU 201515Z AUTO 11003KT 10SM CLR 16/11 A3007 RMK AO2 T01640106
KLRU 201455Z AUTO 15003KT 10SM CLR 16/11 A3007 RMK AO2 T01550107
KLRU 201435Z AUTO 21004KT 10SM CLR 13/11 A3006 RMK AO2 T01320114
KLRU 201415Z AUTO 00000KT 10SM CLR 12/11 A3005 RMK AO2 T01210114
KLRU 201355Z AUTO 00000KT 10SM CLR 11/11 A3005 RMK AO2 T01110106
KLRU 201335Z AUTO 00000KT 10SM CLR 10/10 A3004 RMK AO2 T01020098
KLRU 201315Z AUTO 00000KT 10SM CLR 10/10 A3004 RMK AO2 T01030096
KLRU 201255Z AUTO 00000KT 10SM CLR 11/10 A3004 RMK AO2 T01050099
KLRU 201235Z AUTO 00000KT 10SM CLR 11/10 A3005 RMK AO2 T01060101
KLRU 201215Z AUTO 00000KT 10SM CLR 11/10 A3005 RMK AO2 T01140104
KLRU 201155Z AUTO 00000KT 10SM CLR 12/10 A3004 RMK AO2 70028 T01170104 10146 20105
KLRU 201135Z AUTO 00000KT 10SM CLR 11/10 A3005 RMK AO2 T01090103
KLRU 201115Z AUTO 00000KT 10SM CLR 11/10 A3005 RMK AO2 T01070104
KLRU 201055Z AUTO 00000KT 10SM CLR 11/10 A3005 RMK AO2 T01070103
KLRU 201035Z AUTO 23003KT 10SM CLR 11/11 A3006 RMK AO2 T01110107
KLRU 201015Z AUTO 00000KT 10SM CLR 12/11 A3006 RMK AO2 T01170106
KLRU 200955Z AUTO 00000KT 10SM CLR 12/11 A3006 RMK AO2 T01200108
KLRU 200935Z AUTO 00000KT 10SM CLR 13/11 A3005 RMK AO2 T01250107
KLRU 200915Z AUTO 19007KT 10SM CLR 13/11 A3006 RMK AO2 T01310109
KLRU 200855Z AUTO 17006KT 10SM CLR 13/12 A3007 RMK AO2 T01250116
KLRU 200835Z AUTO 21004KT 10SM CLR 12/12 A3007 RMK AO2 T01240120
KLRU 200815Z AUTO 27003KT 10SM CLR 12/12 A3007 RMK AO2 T01230116
KLRU 200755Z AUTO 00000KT 10SM CLR 13/12 A3007 RMK AO2 T01320117
KLRU 200735Z AUTO 21004KT 10SM CLR 14/12 A3007 RMK AO2 T01370118
KLRU 200715Z AUTO 17004KT 10SM CLR 14/12 A3007 RMK AO2 T01400116
KLRU 200655Z AUTO 23005KT 10SM CLR 14/12 A3007 RMK AO2 T01400115
KLRU 200635Z AUTO 25006KT 10SM CLR 14/12 A3006 RMK AO2 LTG DSNT E T01410116
KLRU 200615Z AUTO 25007KT 10SM CLR 14/12 A3006 RMK AO2 T01400120
KLRU 200555Z AUTO 27008KT 10SM SCT120 15/12 A3006 RMK AO2 60023 T01470121 10211 20142
KLRU 200535Z AUTO 19008KT 10SM SCT080 SCT120 15/12 A3005 RMK AO2 LTG DSNT E T01510121
KLRU 200515Z AUTO 17009KT 160V240 10SM BKN090 BKN110 19/08 A3003 RMK AO2 LTG DSNT E T01860084
KLRU 200455Z AUTO 30013G19KT 10SM -RA OVC090 15/12 A3005 RMK AO2 LTG DSNT NE AND NW P0001 T01510119
KLRU 200435Z AUTO 00000KT 10SM BKN100 BKN120 15/13 A3007 RMK AO2 LTG DSNT ALQS P0001 T01480125
KLRU 200415Z AUTO 12007KT 10SM -VCTSRA BKN100 BKN120 14/13 A3005 RMK AO2 LTG DSNT ALQS P0001 T01440130
KLRU 200355Z AUTO 35007KT 10SM -VCTSRA SCT035 BKN090 OVC120 15/13 A3007 RMK AO2 LTG DSNT ALQS P0013 T01450130
KLRU 200335Z AUTO 08005G18KT 4SM TSRA SCT040 SCT075 OVC090 14/12 A3005 RMK AO2 LTG DSNT ALQS P0011 T01420123
KLRU 200315Z AUTO 36013G21KT 10SM VCTSRA SCT042 SCT070 OVC080 16/12 A3004 RMK AO2 LTG DSNT ALQS P0002 T01560115
KLRU 200255Z AUTO 36011G15KT 4SM +TSRA SCT016 SCT035 OVC080 15/12 A3006 RMK AO2 LTG DSNT ALQS P0008 60008 T01490119
KLRU 200235Z AUTO 04007G18KT 10SM -VCTSRA BKN080 OVC090 16/12 A3008 RMK AO2 LTG DSNT ALQS T01560116
KLRU 200215Z AUTO 04013G23KT 10SM -RA SCT080 BKN090 BKN120 17/10 A3008 RMK AO2 LTG DSNT NE SW AND W T01680103
KLRU 200155Z AUTO 02011G18KT 10SM -TSRA SCT100 BKN120 17/10 A3008 RMK AO2 LTG DSNT ALQS T01740104
KLRU 200135Z AUTO 35022G30KT 10SM VCTS BKN100 20/07 A3006 RMK AO2 LTG DSNT ALQS T02000068
KLRU 200115Z AUTO 36016G25KT 10SM SCT110 20/08 A3003 RMK AO2 LTG DSNT W THRU E T01960082
KLRU 200055Z AUTO 02008KT 10SM SCT120 20/08 A3002 RMK AO2 LTG DSNT ALQS T02010081
KLRU 200035Z AUTO 01008KT 10SM SCT090 SCT120 20/08 A3000 RMK AO2 LTG DSNT W THRU N T02030080
KLRU 200015Z AUTO 03010KT 10SM SCT110 21/08 A3000 RMK AO2 LTG DSNT ALQS T02060081
KLRU 192355Z AUTO 03011G20KT 10SM SCT090 OVC110 21/08 A3000 RMK AO2 LTG DSNT W THRU NE T02120082 10286 20212
KLRU 192335Z AUTO 02013G17KT 10SM SCT090 OVC110 24/08 A2999 RMK AO2 LTG DSNT NW THRU E T02390079
KLRU 192315Z AUTO 18007KT 10SM TS SCT120 28/06 A2999 RMK AO2 LTG DSNT NE AND NW T02830057
KLRU 192255Z AUTO 19008KT 10SM CLR 28/06 A2999 RMK AO2 LTG DSNT NE AND E T02800062
KLRU 192235Z AUTO 16007KT 10SM SCT120 28/06 A2999 RMK AO2 LTG DSNT N AND NW T02830063
KLRU 192215Z AUTO 20011G15KT 10SM SCT110 29/06 A2999 RMK AO2 LTG DSNT N AND NE T02850064
KLRU 192155Z AUTO 17010KT 10SM CLR 28/07 A2999 RMK AO2 LTG DSNT N T02810069
KLRU 192135Z AUTO 16010G14KT 10SM CLR 28/07 A2999 RMK AO2 LTG DSNT N AND E T02780072
KLRU 192115Z AUTO 17013G16KT 10SM CLR 28/07 A3000 RMK AO2 T02790069
KLRU 192055Z AUTO 18010G16KT 10SM CLR 28/07 A3000 RMK AO2 LTG DSNT N AND NW T02760070